Time;durP1;ratioP1;P1;durP2;ratioP2;P2;SDS_P1;SDS_P2;PMS_P1;PMS_P2;Temp;Humidity;BMP_temperature;BMP_pressure;BME280_temperature;BME280_humidity;BME280_pressure;Samples;Min_cycle;Max_cycle;Signal;HPM_P1;HPM_P2
2023/01/22 00:00:32;;;;;;;11.93;4.53;;;;;;;-0.15;100.00;102359.03;5982943;29;20391;-76
2023/01/22 00:03:28;;;;;;;10.30;4.60;;;;;;;-0.19;100.00;102345.22;5985400;28;20030;-74
2023/01/22 00:06:23;;;;;;;9.40;4.43;;;;;;;-0.13;100.00;102357.25;5982378;29;20046;-74
2023/01/22 00:09:21;;;;;;;8.97;4.07;;;;;;;-0.20;100.00;102335.72;5982972;29;20064;-76
2023/01/22 00:12:16;;;;;;;8.88;4.50;;;;;;;-0.19;100.00;102336.56;5982027;29;20826;-74
2023/01/22 00:15:11;;;;;;;11.30;4.93;;;;;;;-0.12;100.00;102345.94;5982892;29;20023;-74
2023/01/22 00:18:06;;;;;;;8.50;3.77;;;;;;;-0.13;100.00;102341.59;5982684;29;20086;-74
2023/01/22 00:21:02;;;;;;;14.43;5.00;;;;;;;-0.10;100.00;102338.91;5982646;29;20379;-76
2023/01/22 00:23:57;;;;;;;12.27;4.53;;;;;;;-0.16;100.00;102331.25;5981412;29;20043;-74
2023/01/22 00:26:52;;;;;;;11.17;4.37;;;;;;;-0.10;100.00;102344.13;5982373;29;20036;-73
2023/01/22 00:29:48;;;;;;;8.93;4.13;;;;;;;-0.17;100.00;102340.84;5982694;29;20458;-75
2023/01/22 00:32:45;;;;;;;14.20;4.90;;;;;;;-0.21;100.00;102326.16;5982107;29;20039;-73
2023/01/22 00:35:40;;;;;;;11.50;4.80;;;;;;;-0.21;100.00;102327.91;5982102;29;20034;-74
2023/01/22 00:38:35;;;;;;;9.90;4.77;;;;;;;-0.19;100.00;102329.56;5981797;29;20046;-73
2023/01/22 00:41:31;;;;;;;10.35;4.40;;;;;;;-0.13;100.00;102337.25;5981906;29;20110;-74
2023/01/22 00:44:26;;;;;;;10.80;4.30;;;;;;;-0.16;100.00;102337.31;5981509;28;20031;-75
2023/01/22 00:47:21;;;;;;;13.57;4.23;;;;;;;-0.27;100.00;102318.50;5981927;29;20031;-76
2023/01/22 00:50:17;;;;;;;11.07;4.60;;;;;;;-0.25;100.00;102314.13;5981737;29;20531;-75
2023/01/22 00:53:12;;;;;;;11.40;5.30;;;;;;;-0.16;100.00;102337.31;5975241;29;20071;-75
2023/01/22 00:56:08;;;;;;;10.40;3.93;;;;;;;-0.22;100.00;102315.78;5981109;29;20042;-74
2023/01/22 00:59:09;;;;;;;10.27;5.40;;;;;;;-0.22;100.00;102324.44;5981803;29;20023;-74
2023/01/22 01:02:05;;;;;;;11.43;5.07;;;;;;;-0.23;100.00;102312.31;5981299;28;20027;-73
2023/01/22 01:05:00;;;;;;;12.32;4.85;;;;;;;-0.14;100.00;102330.34;5981338;29;20031;-74
2023/01/22 01:07:56;;;;;;;9.80;4.63;;;;;;;-0.24;100.00;102313.19;5981327;28;20499;-73
2023/01/22 01:11:00;;;;;;;11.70;5.03;;;;;;;-0.22;100.00;102302.75;5980248;29;20039;-73
2023/01/22 01:13:55;;;;;;;10.57;4.07;;;;;;;-0.17;100.00;102320.00;5980882;29;20486;-74
2023/01/22 01:16:51;;;;;;;12.20;4.85;;;;;;;-0.18;100.00;102313.06;5983009;28;20039;-73
2023/01/22 01:19:46;;;;;;;9.90;4.13;;;;;;;-0.13;100.00;102312.94;5997824;28;20038;-75
2023/01/22 01:22:41;;;;;;;10.17;5.53;;;;;;;-0.18;100.00;102301.78;5983050;28;20474;-74
2023/01/22 01:25:39;;;;;;;10.52;5.32;;;;;;;-0.13;100.00;102319.00;5980850;29;20031;-73
2023/01/22 01:28:35;;;;;;;14.32;5.70;;;;;;;-0.19;100.00;102306.13;5980862;29;20038;-72
2023/01/22 01:31:30;;;;;;;11.30;4.55;;;;;;;-0.20;100.00;102304.44;5980885;29;20062;-74
2023/01/22 01:34:25;;;;;;;11.73;4.60;;;;;;;-0.25;100.00;102298.47;5980361;29;20075;-74
2023/01/22 01:37:21;;;;;;;9.33;4.10;;;;;;;-0.21;100.00;102302.69;5980703;29;20078;-74
2023/01/22 01:40:16;;;;;;;9.07;4.17;;;;;;;-0.21;100.00;102287.06;5980556;29;20028;-73
2023/01/22 01:43:15;;;;;;;11.15;5.10;;;;;;;-0.15;100.00;102301.69;5980178;29;20061;-72
2023/01/22 01:46:22;;;;;;;12.23;5.35;;;;;;;-0.24;100.00;102287.16;5980555;28;20046;-73
2023/01/22 01:49:59;;;;;;;10.27;5.03;;;;;;;-0.23;100.00;102294.06;5979174;29;20035;-73
2023/01/22 01:52:55;;;;;;;10.50;5.05;;;;;;;-0.28;100.00;102288.13;5956990;29;20039;-72
2023/01/22 01:55:51;;;;;;;11.43;4.60;;;;;;;-0.19;100.00;102298.31;5963443;29;20467;-72
2023/01/22 01:58:50;;;;;;;10.63;5.05;;;;;;;-0.15;100.00;102305.16;5980277;29;20534;-74
2023/01/22 02:01:48;;;;;;;8.90;4.57;;;;;;;-0.25;100.00;102285.44;5963405;28;20047;-74
2023/01/22 02:04:44;;;;;;;14.27;5.75;;;;;;;-0.21;100.00;102302.69;5982685;28;20443;-73
2023/01/22 02:07:39;;;;;;;10.97;5.60;;;;;;;-0.21;100.00;102294.88;5979877;29;20027;-74
2023/01/22 02:10:36;;;;;;;9.97;4.33;;;;;;;-0.19;100.00;102303.50;5980199;29;20035;-73
2023/01/22 02:13:33;;;;;;;12.93;5.28;;;;;;;-0.16;100.00;102300.84;5961967;29;20038;-73
2023/01/22 02:16:28;;;;;;;13.90;5.47;;;;;;;-0.24;100.00;102284.53;5962824;29;20039;-73
2023/01/22 02:19:23;;;;;;;13.32;5.47;;;;;;;-0.12;100.00;102301.63;5979669;28;20073;-71
2023/01/22 02:22:21;;;;;;;12.73;5.93;;;;;;;-0.24;100.00;102292.34;5978077;29;20025;-72
2023/01/22 02:25:16;;;;;;;10.63;4.75;;;;;;;-0.17;100.00;102301.75;5979622;29;20058;-73
2023/01/22 02:28:11;;;;;;;11.23;4.57;;;;;;;-0.20;100.00;102295.75;5962490;29;20039;-73
2023/01/22 02:31:07;;;;;;;9.80;4.43;;;;;;;-0.15;100.00;102302.56;5979975;29;20494;-73
2023/01/22 02:34:02;;;;;;;9.63;4.83;;;;;;;-0.11;100.00;102308.56;5978126;29;20037;-72
2023/01/22 02:36:57;;;;;;;12.20;4.90;;;;;;;-0.13;100.00;102299.91;5979421;29;20043;-71
2023/01/22 02:39:52;;;;;;;12.63;5.43;;;;;;;-0.14;100.00;102299.06;5979606;29;20031;-71
2023/01/22 02:42:48;;;;;;;13.17;6.03;;;;;;;-0.17;100.00;102304.34;5979032;29;20035;-73
2023/01/22 02:45:43;;;;;;;11.03;4.83;;;;;;;-0.18;100.00;102299.16;5979553;28;20499;-73
2023/01/22 02:48:38;;;;;;;12.27;5.67;;;;;;;-0.17;100.00;102293.94;5979204;29;20075;-72
2023/01/22 02:51:34;;;;;;;11.30;5.40;;;;;;;-0.14;100.00;102304.28;5978638;29;20780;-71
2023/01/22 02:54:29;;;;;;;11.70;5.10;;;;;;;-0.17;100.00;102301.75;5978072;28;20031;-72
2023/01/22 02:57:25;;;;;;;12.27;5.45;;;;;;;-0.12;100.00;102305.09;5992751;28;20062;-71
2023/01/22 03:00:20;;;;;;;14.25;5.38;;;;;;;-0.12;100.00;102302.47;5979266;29;20031;-72
2023/01/22 03:03:15;;;;;;;11.03;5.40;;;;;;;-0.21;100.00;102286.22;5982126;28;20035;-71
2023/01/22 03:06:11;;;;;;;11.93;4.70;;;;;;;-0.18;100.00;102287.00;5979319;29;20034;-71
2023/01/22 03:09:06;;;;;;;12.02;5.93;;;;;;;-0.16;100.00;102300.84;5978676;29;20074;-70
2023/01/22 03:12:02;;;;;;;12.98;6.10;;;;;;;-0.23;100.00;102278.44;5978243;29;20039;-71
2023/01/22 03:21:26;;;;;;;13.00;5.75;;;;;;;-0.26;100.00;102278.50;5979098;29;20027;-73
2023/01/22 03:24:21;;;;;;;7.97;3.65;;;;;;;-0.14;100.00;102300.81;5978099;29;20031;-72
2023/01/22 03:27:17;;;;;;;14.60;4.60;;;;;;;-0.20;100.00;102285.31;5978632;29;20043;-72
2023/01/22 03:30:13;;;;;;;14.80;4.85;;;;;;;-0.20;100.00;102294.00;5978810;29;20073;-71
2023/01/22 03:33:08;;;;;;;11.63;4.93;;;;;;;-0.22;100.00;102293.16;5979924;28;20035;-72
2023/01/22 03:36:06;;;;;;;11.00;4.83;;;;;;;-0.17;100.00;102304.34;5983674;29;20038;-72
2023/01/22 03:39:01;;;;;;;13.57;5.30;;;;;;;-0.18;100.00;102299.16;5983287;29;20034;-72
2023/01/22 03:41:56;;;;;;;12.60;4.77;;;;;;;-0.22;100.00;102293.16;5982680;29;20376;-70
2023/01/22 03:44:51;;;;;;;10.83;4.23;;;;;;;-0.15;100.00;102302.56;5982758;28;20106;-72
2023/01/22 03:47:47;;;;;;;15.20;5.27;;;;;;;-0.19;100.00;102295.69;5983357;29;20039;-72
2023/01/22 03:50:42;;;;;;;9.43;4.30;;;;;;;-0.15;100.00;102292.13;5983469;29;20383;-72
2023/01/22 03:53:38;;;;;;;11.73;3.80;;;;;;;-0.21;100.00;102292.28;5982115;29;20035;-73
2023/01/22 03:56:33;;;;;;;9.88;4.28;;;;;;;-0.24;100.00;102294.97;5983225;29;20035;-74
2023/01/22 03:59:29;;;;;;;10.97;4.80;;;;;;;-0.23;100.00;102294.06;5982428;29;20039;-73
2023/01/22 04:02:24;;;;;;;9.50;4.10;;;;;;;-0.18;100.00;102302.63;5986377;28;20062;-73
2023/01/22 04:05:19;;;;;;;11.40;4.50;;;;;;;-0.23;100.00;102298.44;5983199;29;20035;-71
2023/01/22 04:08:14;;;;;;;9.90;4.70;;;;;;;-0.29;100.00;102298.56;5982678;29;20387;-71
2023/01/22 04:11:10;;;;;;;9.93;4.17;;;;;;;-0.26;100.00;102294.16;5982985;29;20402;-72
2023/01/22 04:14:05;;;;;;;10.10;4.32;;;;;;;-0.30;100.00;102297.72;5981350;29;20063;-74
2023/01/22 04:17:01;;;;;;;11.17;4.43;;;;;;;-0.20;100.00;102309.66;5982726;29;20031;-73
2023/01/22 04:19:56;;;;;;;10.50;4.27;;;;;;;-0.31;100.00;102306.44;5982589;29;20035;-74
2023/01/22 04:22:51;;;;;;;9.90;4.47;;;;;;;-0.30;100.00;102304.69;5981792;29;20042;-71
2023/01/22 04:25:48;;;;;;;11.10;4.07;;;;;;;-0.23;100.00;102322.75;5982633;29;20476;-73
2023/01/22 04:28:43;;;;;;;13.85;4.43;;;;;;;-0.23;100.00;102322.75;5982499;29;20037;-71
2023/01/22 04:31:38;;;;;;;9.43;4.53;;;;;;;-0.19;100.00;102319.16;5981959;28;20035;-73
2023/01/22 04:34:34;;;;;;;12.33;5.53;;;;;;;-0.22;100.00;102311.41;5997002;28;20034;-72
2023/01/22 04:37:30;;;;;;;8.90;4.60;;;;;;;-0.17;100.00;102309.56;5982532;28;20031;-72
2023/01/22 04:40:25;;;;;;;10.73;4.55;;;;;;;-0.20;100.00;102314.84;5982157;29;20039;-73
2023/01/22 04:43:21;;;;;;;9.00;4.30;;;;;;;-0.23;100.00;102309.72;5981157;28;20042;-73
2023/01/22 04:46:16;;;;;;;9.97;4.10;;;;;;;-0.21;100.00;102313.13;5981525;28;20471;-72
2023/01/22 04:49:11;;;;;;;7.93;4.63;;;;;;;-0.24;100.00;102294.09;5982035;29;20131;-73
2023/01/22 04:52:06;;;;;;;9.13;4.33;;;;;;;-0.22;100.00;102311.41;5981104;29;20047;-72
2023/01/22 04:55:02;;;;;;;11.17;4.53;;;;;;;-0.25;100.00;102298.47;5981874;29;20408;-72
2023/01/22 04:57:58;;;;;;;8.93;4.07;;;;;;;-0.22;100.00;102305.38;5981639;29;20058;-74
2023/01/22 05:00:55;;;;;;;10.55;4.47;;;;;;;-0.17;100.00;102317.38;5981906;29;20471;-72
2023/01/22 05:03:50;;;;;;;11.43;4.95;;;;;;;-0.17;100.00;102316.53;5984935;28;20529;-71
2023/01/22 05:06:46;;;;;;;11.98;4.82;;;;;;;-0.24;100.00;102312.34;5981546;29;20035;-72
2023/01/22 05:09:41;;;;;;;10.93;5.32;;;;;;;-0.19;100.00;102320.94;5981441;29;20043;-73
2023/01/22 05:12:37;;;;;;;11.47;4.57;;;;;;;-0.27;100.00;102313.28;5980712;29;20032;-73
2023/01/22 05:15:32;;;;;;;10.97;4.20;;;;;;;-0.19;100.00;102319.16;5981627;29;20533;-71
2023/01/22 05:18:28;;;;;;;10.15;4.63;;;;;;;-0.26;100.00;102303.72;5981487;29;20035;-73
2023/01/22 05:21:23;;;;;;;7.63;3.23;;;;;;;-0.23;100.00;102314.06;5980800;29;20039;-72
2023/01/22 05:24:18;;;;;;;10.27;3.90;;;;;;;-0.19;100.00;102321.75;5980399;29;20043;-73
2023/01/22 05:27:14;;;;;;;11.00;3.97;;;;;;;-0.24;100.00;102326.22;5980910;29;20502;-74
2023/01/22 05:30:10;;;;;;;7.07;3.93;;;;;;;-0.27;100.00;102325.47;5981398;29;20118;-73
2023/01/22 05:33:06;;;;;;;7.20;3.20;;;;;;;-0.30;100.00;102315.13;5979278;29;20035;-74
2023/01/22 05:36:02;;;;;;;5.83;3.07;;;;;;;-0.22;100.00;102337.47;5980467;29;20403;-74
2023/01/22 05:38:57;;;;;;;6.35;3.08;;;;;;;-0.27;100.00;102328.09;5963779;29;20442;-74
2023/01/22 05:41:53;;;;;;;7.50;3.10;;;;;;;-0.24;100.00;102339.25;5979994;29;20031;-74
2023/01/22 05:44:48;;;;;;;8.60;3.38;;;;;;;-0.31;100.00;102323.81;5980650;28;20279;-74
2023/01/22 05:47:43;;;;;;;10.07;3.17;;;;;;;-0.20;100.00;102350.47;5980627;29;20031;-74
2023/01/22 05:50:39;;;;;;;8.33;3.33;;;;;;;-0.19;100.00;102350.44;5980694;29;20267;-72
2023/01/22 05:53:35;;;;;;;9.55;3.80;;;;;;;-0.27;100.00;102336.72;5979868;29;20038;-74
2023/01/22 05:56:30;;;;;;;10.27;4.70;;;;;;;-0.26;100.00;102351.47;5978799;28;20463;-74
2023/01/22 05:59:25;;;;;;;6.55;3.10;;;;;;;-0.23;100.00;102346.19;5980522;28;20283;-73
2023/01/22 06:02:21;;;;;;;8.33;3.63;;;;;;;-0.29;100.00;102341.13;5981143;28;20102;-74
2023/01/22 06:05:16;;;;;;;6.82;3.20;;;;;;;-0.26;100.00;102351.47;5979904;29;20035;-72
2023/01/22 06:08:12;;;;;;;9.00;3.50;;;;;;;-0.31;100.00;102342.06;5979932;29;20031;-74
2023/01/22 06:11:12;;;;;;;9.10;3.67;;;;;;;-0.25;100.00;102355.81;5989916;28;20053;-71
2023/01/22 06:14:08;;;;;;;10.10;3.30;;;;;;;-0.34;100.00;102350.81;5968168;29;20035;-71
2023/01/22 06:17:03;;;;;;;9.23;4.00;;;;;;;-0.24;100.00;102360.13;5962492;29;20035;-73
2023/01/22 06:19:58;;;;;;;6.33;3.23;;;;;;;-0.29;100.00;102355.91;5980213;29;20024;-72
2023/01/22 06:22:54;;;;;;;8.90;3.23;;;;;;;-0.27;100.00;102359.34;5979160;29;20423;-72
2023/01/22 06:25:53;;;;;;;13.17;4.53;;;;;;;-0.25;100.00;102370.59;5978970;29;20035;-73
2023/01/22 06:28:48;;;;;;;10.63;4.53;;;;;;;-0.29;100.00;102361.13;5962657;29;20525;-73
2023/01/22 06:31:44;;;;;;;9.80;3.20;;;;;;;-0.25;100.00;102357.56;5979490;29;20035;-73
2023/01/22 06:34:39;;;;;;;9.53;3.70;;;;;;;-0.20;100.00;102371.34;5979485;29;20090;-71
2023/01/22 06:37:34;;;;;;;6.60;3.13;;;;;;;-0.23;100.00;102371.41;5979688;29;20039;-71
2023/01/22 06:40:30;;;;;;;7.73;2.50;;;;;;;-0.20;100.00;102372.19;5978736;29;20031;-72
2023/01/22 06:43:26;;;;;;;7.22;3.13;;;;;;;-0.29;100.00;102361.97;5978670;29;20082;-72
2023/01/22 06:46:21;;;;;;;7.05;3.10;;;;;;;-0.28;100.00;102373.28;5979285;28;20174;-73
2023/01/22 06:49:16;;;;;;;10.33;4.23;;;;;;;-0.27;100.00;102370.59;5978866;29;20510;-73
2023/01/22 06:52:12;;;;;;;9.13;4.00;;;;;;;-0.22;100.00;102381.78;5976352;29;20038;-72
2023/01/22 06:55:07;;;;;;;8.80;3.37;;;;;;;-0.26;100.00;102374.94;5979259;29;20035;-73
2023/01/22 06:58:03;;;;;;;7.70;3.33;;;;;;;-0.36;100.00;102378.66;5978895;29;20509;-74
2023/01/22 07:01:03;;;;;;;9.82;3.90;;;;;;;-0.27;100.00;102391.47;5978813;29;20043;-74
2023/01/22 07:03:58;;;;;;;9.05;3.80;;;;;;;-0.26;100.00;102398.41;5982676;28;20031;-74
2023/01/22 07:06:54;;;;;;;8.67;3.97;;;;;;;-0.28;100.00;102400.19;5978070;28;20086;-72
2023/01/22 07:09:49;;;;;;;9.60;3.67;;;;;;;-0.30;100.00;102401.94;5979242;29;20430;-73
2023/01/22 07:12:44;;;;;;;9.47;4.00;;;;;;;-0.33;100.00;102402.06;5960839;29;20027;-73
2023/01/22 07:15:39;;;;;;;7.03;3.50;;;;;;;-0.31;100.00;102404.59;5978233;29;20035;-73
2023/01/22 07:18:35;;;;;;;21.33;9.53;;;;;;;-0.24;100.00;102421.81;5979040;29;20110;-74
2023/01/22 07:21:30;;;;;;;10.87;4.80;;;;;;;-0.25;100.00;102407.94;5978708;29;20035;-74
2023/01/22 07:24:25;;;;;;;15.90;7.37;;;;;;;-0.22;100.00;102418.25;5978464;29;20259;-73
2023/01/22 07:27:21;;;;;;;11.60;5.20;;;;;;;-0.22;100.00;102423.47;5978066;29;20279;-72
2023/01/22 07:30:16;;;;;;;7.87;4.23;;;;;;;-0.21;100.00;102412.16;5978757;29;20049;-73
2023/01/22 07:33:12;;;;;;;7.57;3.70;;;;;;;-0.16;100.00;102423.34;5977795;29;20039;-72
2023/01/22 07:36:08;;;;;;;9.32;5.00;;;;;;;-0.12;100.00;102437.16;5978890;29;20035;-73
2023/01/22 07:39:04;;;;;;;10.00;4.83;;;;;;;-0.20;100.00;102428.66;5978569;29;20058;-72
2023/01/22 07:42:00;;;;;;;7.70;3.75;;;;;;;-0.18;100.00;102440.78;5977874;29;20034;-74
2023/01/22 07:44:55;;;;;;;12.15;4.60;;;;;;;-0.14;100.00;102434.63;5978527;28;20047;-73
2023/01/22 07:47:55;;;;;;;10.07;3.50;;;;;;;-0.19;100.00;102436.44;5979213;29;20398;-73
2023/01/22 07:50:50;;;;;;;13.02;5.85;;;;;;;-0.14;100.00;102439.81;5977104;29;20039;-72
2023/01/22 07:53:45;;;;;;;6.60;3.50;;;;;;;-0.18;100.00;102439.91;5977262;29;20035;-72
2023/01/22 07:56:42;;;;;;;7.77;3.37;;;;;;;-0.14;100.00;102426.78;5978705;29;20414;-72
2023/01/22 07:59:37;;;;;;;7.22;3.50;;;;;;;-0.13;100.00;102436.31;5978555;29;20035;-72
2023/01/22 08:02:32;;;;;;;8.50;2.67;;;;;;;-0.16;100.00;102431.16;5977466;29;20054;-73
2023/01/22 08:05:27;;;;;;;5.57;2.40;;;;;;;-0.10;100.00;102444.06;5978807;29;20035;-71
2023/01/22 08:08:23;;;;;;;7.57;3.27;;;;;;;-0.14;100.00;102433.75;5978806;29;20122;-71
2023/01/22 08:11:18;;;;;;;5.97;3.07;;;;;;;-0.10;100.00;102451.88;5978793;29;20038;-72
2023/01/22 08:14:13;;;;;;;5.25;2.30;;;;;;;-0.07;100.00;102456.16;5977642;29;20034;-73
2023/01/22 08:17:09;;;;;;;7.87;2.90;;;;;;;-0.11;100.00;102444.94;5978664;29;20051;-73
2023/01/22 08:20:05;;;;;;;6.90;3.37;;;;;;;0.00;100.00;102455.97;5981988;28;20033;-70
2023/01/22 08:23:00;;;;;;;7.78;3.38;;;;;;;-0.02;100.00;102455.16;5982380;29;20501;-72
2023/01/22 08:26:00;;;;;;;7.90;2.90;;;;;;;-0.03;100.00;102460.44;5981756;29;20118;-72
2023/01/22 08:28:55;;;;;;;6.53;3.20;;;;;;;-0.02;100.00;102455.16;5982056;29;20036;-72
2023/01/22 08:31:53;;;;;;;8.33;3.33;;;;;;;-0.03;100.00;102466.47;5979763;29;20034;-73
2023/01/22 08:34:52;;;;;;;6.32;3.00;;;;;;;-0.02;100.00;102459.50;5979612;29;20039;-73
2023/01/22 08:37:48;;;;;;;6.43;3.05;;;;;;;0.05;100.00;102466.31;5980323;29;20039;-75
2023/01/22 08:40:47;;;;;;;6.83;3.03;;;;;;;-0.03;100.00;102448.22;5980060;29;20495;-73
2023/01/22 08:43:42;;;;;;;6.25;2.88;;;;;;;-0.01;100.00;102458.63;5979503;29;20055;-73
2023/01/22 08:46:39;;;;;;;8.17;3.67;;;;;;;0.02;100.00;102457.69;5981968;28;20047;-74
2023/01/22 08:49:34;;;;;;;9.13;3.75;;;;;;;0.15;100.00;102465.19;5981213;29;20043;-73
2023/01/22 08:52:30;;;;;;;6.07;2.67;;;;;;;0.26;100.00;102464.94;5980120;29;20122;-74
2023/01/22 08:55:28;;;;;;;7.00;2.70;;;;;;;0.22;100.00;102478.97;5980319;28;20031;-74
2023/01/22 08:58:26;;;;;;;5.90;2.90;;;;;;;0.27;100.00;102472.72;5981973;29;20067;-73
2023/01/22 09:01:21;;;;;;;5.93;3.20;;;;;;;0.14;100.00;102445.22;5981843;29;20042;-73
2023/01/22 09:04:18;;;;;;;5.47;2.63;;;;;;;0.44;100.00;102486.22;5980451;29;20039;-74
2023/01/22 09:07:13;;;;;;;7.38;2.75;;;;;;;0.28;100.00;102469.22;5979265;29;20110;-74
2023/01/22 09:10:11;;;;;;;8.37;4.00;;;;;;;0.29;100.00;102460.50;5978960;29;20102;-72
2023/01/22 09:13:06;;;;;;;11.23;5.32;;;;;;;0.51;100.00;102471.25;5978558;29;20023;-73
2023/01/22 09:16:01;;;;;;;6.90;3.08;;;;;;;0.47;100.00;102469.63;5978997;29;20050;-74
2023/01/22 09:18:57;;;;;;;5.23;2.37;;;;;;;0.39;100.00;102475.03;5978581;29;20031;-70
2023/01/22 09:21:52;;;;;;;8.77;2.93;;;;;;;0.39;100.00;102482.84;5979729;29;20372;-71
2023/01/22 09:24:47;;;;;;;9.23;3.30;;;;;;;0.38;100.00;102488.97;5981655;29;20123;-70
2023/01/22 09:27:43;;;;;;;7.93;3.30;;;;;;;0.55;100.00;102501.59;5981749;29;20035;-73
2023/01/22 09:30:39;;;;;;;5.83;2.93;;;;;;;0.46;100.00;102489.63;5980485;28;20478;-69
2023/01/22 09:33:35;;;;;;;5.47;2.53;;;;;;;0.46;100.00;102496.63;5980931;29;20035;-72
2023/01/22 09:36:30;;;;;;;5.13;2.63;;;;;;;0.58;100.00;102501.50;5980859;29;20090;-70
2023/01/22 09:39:25;;;;;;;6.43;3.00;;;;;;;0.48;100.00;102497.44;5981058;29;20102;-73
2023/01/22 09:42:25;;;;;;;6.70;3.53;;;;;;;0.55;100.00;102504.19;5980763;29;20297;-71
2023/01/22 09:45:23;;;;;;;7.43;4.03;;;;;;;0.53;100.00;102500.78;5981051;28;20031;-73
2023/01/22 09:48:18;;;;;;;9.35;4.63;;;;;;;0.62;100.00;102492.72;5981063;29;20567;-71
2023/01/22 09:51:14;;;;;;;7.30;3.00;;;;;;;0.75;100.00;102512.41;5981122;29;20035;-70
2023/01/22 09:54:12;;;;;;;9.35;4.95;;;;;;;0.78;100.00;102490.56;5963018;29;20067;-72
2023/01/22 09:57:11;;;;;;;14.15;9.02;;;;;;;0.79;100.00;102497.53;5964158;29;20047;-72
2023/01/22 10:00:14;;;;;;;8.55;5.03;;;;;;;0.77;100.00;102507.97;5963548;29;20110;-71
2023/01/22 10:03:37;;;;;;;10.13;5.88;;;;;;;0.89;100.00;102507.69;5979841;29;20106;-73
2023/01/22 10:06:32;;;;;;;9.13;3.65;;;;;;;0.82;100.00;102511.31;5963475;29;20059;-72
2023/01/22 10:09:30;;;;;;;7.05;3.65;;;;;;;0.80;100.00;102505.28;5963621;29;20082;-72
2023/01/22 10:12:30;;;;;;;7.47;3.55;;;;;;;0.84;100.00;102516.53;5962662;29;20035;-69
2023/01/22 10:15:25;;;;;;;7.22;3.70;;;;;;;0.85;100.00;102519.09;5980772;29;20046;-69
2023/01/22 10:18:45;;;;;;;5.70;3.50;;;;;;;0.79;100.00;102523.63;5980131;29;20031;-69
2023/01/22 10:21:46;;;;;;;6.20;3.22;;;;;;;0.70;100.00;102513.41;5969376;29;20467;-70
2023/01/22 10:24:41;;;;;;;7.18;3.42;;;;;;;0.78;100.00;102524.50;5980090;29;20046;-73
2023/01/22 10:27:38;;;;;;;6.37;3.20;;;;;;;0.82;100.00;102524.38;5980124;29;20039;-72
2023/01/22 10:30:43;;;;;;;8.13;3.25;;;;;;;0.78;100.00;102516.69;5980369;29;20114;-72
2023/01/22 10:33:43;;;;;;;4.45;2.50;;;;;;;0.79;100.00;102524.47;5979500;29;20646;-70
2023/01/22 10:36:38;;;;;;;7.25;3.38;;;;;;;0.81;100.00;102522.69;5979721;29;20051;-71
2023/01/22 10:39:45;;;;;;;7.78;3.10;;;;;;;0.74;100.00;102513.28;5979842;29;20107;-72
2023/01/22 10:42:40;;;;;;;5.72;3.40;;;;;;;0.83;100.00;102526.09;5979406;28;20105;-72
2023/01/22 10:45:36;;;;;;;5.90;3.03;;;;;;;0.75;100.00;102517.63;5979922;28;20039;-71
2023/01/22 10:48:32;;;;;;;8.70;3.92;;;;;;;0.71;100.00;102510.75;5979743;29;20035;-72
2023/01/22 10:51:31;;;;;;;7.05;3.58;;;;;;;0.77;100.00;102514.94;5979580;29;20054;-71
2023/01/22 10:54:32;;;;;;;4.85;2.60;;;;;;;0.72;100.00;102504.63;5979064;29;20122;-71
2023/01/22 10:57:32;;;;;;;;;;;;;;;0.73;100.00;102519.41;5980196;29;20037;-71
2023/01/22 11:00:31;;;;;;;6.82;3.08;;;;;;;0.74;100.00;102528.94;5962464;29;19941;-70
2023/01/22 11:03:34;;;;;;;6.28;3.42;;;;;;;0.69;100.00;102516.91;5961943;29;20065;-71
2023/01/22 11:06:39;;;;;;;8.68;4.20;;;;;;;0.69;100.00;102522.13;5979154;29;20126;-70
2023/01/22 11:10:01;;;;;;;30.88;11.10;;;;;;;0.76;100.00;102527.16;5979764;29;20039;-72
2023/01/22 11:13:09;;;;;;;7.82;3.90;;;;;;;0.73;100.00;102515.94;5961606;29;20042;-72
2023/01/22 11:16:10;;;;;;;6.72;3.45;;;;;;;0.77;100.00;102523.66;5962458;29;20071;-72
2023/01/22 11:19:08;;;;;;;;;;;;;;;0.94;100.00;102524.06;5962610;29;20038;-70
2023/01/22 11:22:13;;;;;;;7.40;3.75;;;;;;;0.86;100.00;102533.88;5978795;29;19918;-72
2023/01/22 11:25:10;;;;;;;9.57;4.22;;;;;;;0.85;100.00;102524.31;5961419;29;20031;-72
2023/01/22 11:28:31;;;;;;;8.27;3.92;;;;;;;0.76;100.00;102514.09;5979226;29;20035;-72
2023/01/22 11:32:04;;;;;;;6.55;3.38;;;;;;;0.90;100.00;102532.88;5978947;29;20637;-71
2023/01/22 11:35:22;;;;;;;6.72;3.20;;;;;;;0.85;100.00;102529.53;5979116;29;20035;-70
2023/01/22 11:38:26;;;;;;;6.90;3.50;;;;;;;0.79;100.00;102515.78;5978319;29;20456;-72
2023/01/22 11:41:40;;;;;;;8.43;3.47;;;;;;;0.85;100.00;102521.69;5961700;29;20427;-71
2023/01/22 11:44:48;;;;;;;7.72;3.88;;;;;;;1.02;100.00;102519.50;5960639;28;20146;-72
2023/01/22 11:48:03;;;;;;;8.00;3.90;;;;;;;0.83;100.00;102514.81;5961486;29;20110;-71
2023/01/22 11:51:14;;;;;;;6.80;3.30;;;;;;;0.90;100.00;102509.38;5961487;29;20042;-72
2023/01/22 11:54:09;;;;;;;7.25;3.70;;;;;;;0.84;100.00;102512.16;5963576;29;20047;-69
2023/01/22 11:57:18;;;;;;;7.15;3.67;;;;;;;0.79;100.00;102498.34;5983402;29;20118;-71
2023/01/22 12:00:25;;;;;;;8.00;3.70;;;;;;;0.83;100.00;102515.66;5966506;29;20075;-70
2023/01/22 12:03:57;;;;;;;9.65;4.25;;;;;;;0.71;100.00;102500.31;5982630;29;20039;-74
2023/01/22 12:07:00;;;;;;;9.95;4.20;;;;;;;0.90;100.00;102511.97;5983512;29;20119;-70
2023/01/22 12:10:36;;;;;;;7.93;4.18;;;;;;;0.86;100.00;102515.59;5983440;29;20042;-73
2023/01/22 12:14:01;;;;;;;9.10;4.15;;;;;;;0.85;100.00;102507.78;5949230;29;20055;-73
2023/01/22 12:17:15;;;;;;;12.27;5.40;;;;;;;0.99;100.00;102509.13;5965931;29;20035;-74
2023/01/22 12:20:34;;;;;;;33.38;9.55;;;;;;;0.80;100.00;102492.25;5982743;29;20035;-69
2023/01/22 12:23:40;;;;;;;29.40;10.23;;;;;;;0.96;100.00;102509.22;5982211;29;20028;-71
2023/01/22 12:26:45;;;;;;;14.10;7.20;;;;;;;0.96;100.00;102500.53;5965635;29;20090;-73
2023/01/22 12:29:46;;;;;;;12.50;6.22;;;;;;;0.97;100.00;102486.56;5965647;29;20035;-74
2023/01/22 12:32:44;;;;;;;17.17;7.63;;;;;;;1.09;100.00;102505.38;5964882;29;20066;-73
2023/01/22 12:35:40;;;;;;;21.80;9.90;;;;;;;1.09;100.00;102512.34;5965631;29;20035;-74
2023/01/22 12:38:53;;;;;;;26.83;9.75;;;;;;;1.03;100.00;102495.09;5965319;29;20177;-73
2023/01/22 12:41:57;;;;;;;30.23;10.95;;;;;;;1.16;100.00;102512.16;5982092;29;20573;-71
2023/01/22 12:45:01;;;;;;;23.05;8.98;;;;;;;1.08;100.00;102514.13;5964416;28;20047;-73
2023/01/22 12:48:20;;;;;;;15.13;6.90;;;;;;;1.03;100.00;102513.38;5982355;29;20031;-71
2023/01/22 12:51:44;;;;;;;13.93;6.40;;;;;;;1.11;100.00;102507.97;5981429;29;20062;-72
2023/01/22 12:54:39;;;;;;;12.00;5.47;;;;;;;1.02;100.00;102498.63;5975781;29;20028;-72
2023/01/22 12:57:38;;;;;;;12.60;6.10;;;;;;;1.00;100.00;102507.38;5964823;29;20090;-71
2023/01/22 13:00:37;;;;;;;15.55;6.78;;;;;;;1.00;100.00;102508.25;5981809;29;20019;-72
2023/01/22 13:03:33;;;;;;;13.98;5.60;;;;;;;0.98;100.00;102486.53;5981279;28;20036;-71
2023/01/22 13:06:32;;;;;;;6.70;3.78;;;;;;;0.97;100.00;102497.03;5982022;29;20034;-72
2023/01/22 13:09:34;;;;;;;9.23;4.50;;;;;;;1.10;100.00;102514.94;5981753;29;20111;-72
2023/01/22 13:12:42;;;;;;;6.88;3.60;;;;;;;0.99;100.00;102487.38;5981445;29;20031;-72
2023/01/22 13:15:37;;;;;;;6.93;3.53;;;;;;;1.03;100.00;102522.97;5981519;29;20027;-72
2023/01/22 13:18:38;;;;;;;9.00;3.80;;;;;;;0.97;100.00;102523.13;5964487;29;20039;-69
2023/01/22 13:21:33;;;;;;;7.80;3.80;;;;;;;0.96;100.00;102506.59;5981876;29;20042;-72
2023/01/22 13:24:29;;;;;;;7.83;3.87;;;;;;;0.91;100.00;102508.50;5980955;29;20031;-71
2023/01/22 13:27:32;;;;;;;8.93;4.53;;;;;;;0.86;100.00;102512.97;5981745;29;20042;-72
2023/01/22 13:30:29;;;;;;;9.23;3.95;;;;;;;0.90;100.00;102535.47;5981576;29;20266;-71
2023/01/22 13:33:25;;;;;;;11.48;4.97;;;;;;;0.84;100.00;102516.53;5980516;29;20035;-72
2023/01/22 13:36:21;;;;;;;12.50;5.97;;;;;;;0.79;100.00;102519.22;5981443;29;20074;-71
2023/01/22 13:39:28;;;;;;;9.43;4.80;;;;;;;0.77;100.00;102525.41;5981116;29;20028;-71
2023/01/22 13:42:26;;;;;;;9.35;4.45;;;;;;;0.89;100.00;102531.19;5980731;29;20035;-70
2023/01/22 13:45:23;;;;;;;11.23;4.97;;;;;;;0.88;100.00;102539.91;5980962;28;20126;-73